createdAt,value
2018-03-19T00:00:54.802Z,58.66
2018-03-19T00:02:01.531Z,58.74
2018-03-19T00:03:08.407Z,58.77
2018-03-19T00:04:15.124Z,58.73
2018-03-19T00:05:21.827Z,58.76
2018-03-19T00:06:28.653Z,58.80
2018-03-19T00:07:35.372Z,58.83
2018-03-19T00:08:42.231Z,58.81
2018-03-19T00:09:48.974Z,58.82
2018-03-19T00:10:55.672Z,58.89
2018-03-19T00:12:02.412Z,58.92
2018-03-19T00:13:09.459Z,58.94
2018-03-19T00:14:16.148Z,58.97
2018-03-19T00:15:22.852Z,58.99
2018-03-19T00:16:29.560Z,59.05
2018-03-19T00:17:36.396Z,58.97
2018-03-19T00:18:43.139Z,58.93
2018-03-19T00:19:49.977Z,58.99
2018-03-19T00:20:56.700Z,59.04
2018-03-19T00:22:03.516Z,59.03
2018-03-19T00:23:10.221Z,59.05
2018-03-19T00:24:16.959Z,59.09
2018-03-19T00:25:23.674Z,59.04
2018-03-19T00:26:30.394Z,59.07
2018-03-19T00:27:37.108Z,59.10
2018-03-19T00:28:43.800Z,59.14
2018-03-19T00:29:50.648Z,59.19
2018-03-19T00:30:57.392Z,59.18
2018-03-19T00:32:04.109Z,59.17
2018-03-19T00:33:10.868Z,59.16
2018-03-19T00:34:17.635Z,59.16
2018-03-19T00:35:24.424Z,59.14
2018-03-19T00:36:31.176Z,59.18
2018-03-19T00:37:37.887Z,59.23
2018-03-19T00:38:44.565Z,59.23
2018-03-19T00:39:51.248Z,59.20
2018-03-19T00:40:57.904Z,59.22
2018-03-19T00:42:04.611Z,59.25
2018-03-19T00:43:11.275Z,59.29
2018-03-19T00:44:18.452Z,59.30
2018-03-19T00:45:25.128Z,59.31
2018-03-19T00:46:32.284Z,59.28
2018-03-19T00:47:39.560Z,59.32
2018-03-19T00:48:46.317Z,59.37
2018-03-19T00:49:53.485Z,59.38
2018-03-19T00:51:00.644Z,59.38
2018-03-19T00:52:07.312Z,59.37
2018-03-19T00:53:14.005Z,59.38
2018-03-19T00:54:20.678Z,59.43
2018-03-19T00:55:27.380Z,59.42
2018-03-19T00:56:34.060Z,59.40
2018-03-19T00:57:40.787Z,59.47
2018-03-19T00:58:47.451Z,59.41
2018-03-19T00:59:54.216Z,59.41
2018-03-19T01:01:01.376Z,59.44
2018-03-19T01:02:08.053Z,59.38
2018-03-19T01:03:14.860Z,59.37
2018-03-19T01:04:22.063Z,59.37
2018-03-19T01:05:28.687Z,59.36
2018-03-19T01:06:35.856Z,59.38
2018-03-19T01:07:42.540Z,59.41
2018-03-19T01:08:49.232Z,59.39
2018-03-19T01:09:55.907Z,59.40
2018-03-19T01:11:02.604Z,59.46
2018-03-19T01:12:09.264Z,59.40
2018-03-19T01:13:16.440Z,59.47
2018-03-19T01:14:23.123Z,59.51
2018-03-19T01:15:30.288Z,59.52
2018-03-19T01:16:36.964Z,59.51
2018-03-19T01:17:44.143Z,59.51
2018-03-19T01:18:50.809Z,59.52
2018-03-19T01:19:57.963Z,59.54
2018-03-19T01:21:05.120Z,59.54
2018-03-19T01:22:11.776Z,59.51
2018-03-19T01:23:18.500Z,59.55
2018-03-19T01:24:25.302Z,59.52
2018-03-19T01:25:31.959Z,59.51
2018-03-19T01:26:39.143Z,59.53
2018-03-19T01:27:45.868Z,59.54
2018-03-19T01:28:52.560Z,59.53
2018-03-19T01:29:59.281Z,59.50
2018-03-19T01:31:05.971Z,59.57
2018-03-19T01:32:12.877Z,59.58
2018-03-19T01:33:19.577Z,59.59
2018-03-19T01:34:26.271Z,59.56
2018-03-19T01:35:32.992Z,59.46
2018-03-19T01:36:39.676Z,59.45
2018-03-19T01:37:46.372Z,59.53
2018-03-19T01:38:53.076Z,59.53
2018-03-19T01:39:59.771Z,59.51
2018-03-19T01:41:06.444Z,59.55
2018-03-19T01:42:13.128Z,59.57
2018-03-19T01:43:19.975Z,59.57
2018-03-19T01:44:26.661Z,59.57
2018-03-19T01:45:33.352Z,59.57
2018-03-19T01:46:40.023Z,59.55
2018-03-19T01:47:46.736Z,59.54
2018-03-19T01:48:53.444Z,59.51
2018-03-19T01:50:00.173Z,59.47
2018-03-19T01:51:06.905Z,59.53
2018-03-19T01:52:13.717Z,59.48
2018-03-19T01:53:20.504Z,59.50
2018-03-19T01:54:27.199Z,59.51
2018-03-19T01:55:33.980Z,59.51
2018-03-19T01:56:40.676Z,59.54
2018-03-19T01:57:47.427Z,59.53
2018-03-19T01:58:54.193Z,59.47
2018-03-19T02:00:00.888Z,59.53
2018-03-19T02:01:07.737Z,59.48
2018-03-19T02:02:14.416Z,59.45
2018-03-19T02:03:21.100Z,59.46
2018-03-19T02:04:27.799Z,59.45
2018-03-19T02:05:34.596Z,59.44
2018-03-19T02:06:41.264Z,59.42
2018-03-19T02:07:47.975Z,59.43
2018-03-19T02:08:54.688Z,59.41
2018-03-19T02:10:01.381Z,59.46
2018-03-19T02:11:08.209Z,59.48
2018-03-19T02:12:15.008Z,59.45
2018-03-19T02:13:21.761Z,59.43
2018-03-19T02:14:28.495Z,59.40
2018-03-19T02:15:35.179Z,59.42
2018-03-19T02:16:41.896Z,59.44
2018-03-19T02:17:48.596Z,59.47
2018-03-19T02:18:55.305Z,59.43
2018-03-19T02:20:02.076Z,59.38
2018-03-19T02:21:08.784Z,59.35
2018-03-19T02:22:15.468Z,59.37
2018-03-19T02:23:22.164Z,59.39
2018-03-19T02:24:28.896Z,59.39
2018-03-19T02:25:35.565Z,59.34
2018-03-19T02:26:42.324Z,59.35
2018-03-19T02:27:48.975Z,59.38
2018-03-19T02:28:55.692Z,59.37
2018-03-19T02:30:02.360Z,59.33
2018-03-19T02:31:09.169Z,59.32
2018-03-19T02:32:15.850Z,59.33
2018-03-19T02:33:22.745Z,59.33
2018-03-19T02:34:29.449Z,59.32
2018-03-19T02:35:36.092Z,59.28
2018-03-19T02:36:42.777Z,59.29
2018-03-19T02:37:49.948Z,59.34
2018-03-19T02:38:56.648Z,59.29
2018-03-19T02:40:03.393Z,59.29
2018-03-19T02:41:10.549Z,59.32
2018-03-19T02:42:17.708Z,59.32
2018-03-19T02:43:24.891Z,59.32
2018-03-19T02:44:31.565Z,59.32
2018-03-19T02:45:38.228Z,59.34
2018-03-19T02:46:45.383Z,59.30
2018-03-19T02:47:52.552Z,59.33
2018-03-19T02:48:59.311Z,59.39
2018-03-19T02:50:06.513Z,59.33
2018-03-19T02:51:13.215Z,59.36
2018-03-19T02:52:19.892Z,59.38
2018-03-19T02:53:27.049Z,59.33
2018-03-19T02:54:34.230Z,59.34
2018-03-19T02:55:40.906Z,59.32
2018-03-19T02:56:47.584Z,59.36
2018-03-19T02:57:54.743Z,59.37
2018-03-19T02:59:01.409Z,59.41
2018-03-19T03:00:08.590Z,59.40
2018-03-19T03:01:15.383Z,59.40
2018-03-19T03:02:22.044Z,59.40
2018-03-19T03:03:28.716Z,59.43
2018-03-19T03:04:35.888Z,59.41
2018-03-19T03:05:42.531Z,59.42
2018-03-19T03:06:49.687Z,59.47
2018-03-19T03:07:56.366Z,59.52
2018-03-19T03:09:03.521Z,59.54
2018-03-19T03:10:10.698Z,59.53
2018-03-19T03:11:17.362Z,59.59
2018-03-19T03:12:24.544Z,59.59
2018-03-19T03:13:31.199Z,59.62
2018-03-19T03:14:37.942Z,59.64
2018-03-19T03:15:44.621Z,59.63
2018-03-19T03:16:51.312Z,59.65
2018-03-19T03:17:58.076Z,59.64
2018-03-19T03:19:04.739Z,59.69
2018-03-19T03:20:11.425Z,59.69
2018-03-19T03:21:18.083Z,59.67
2018-03-19T03:22:24.905Z,59.71
2018-03-19T03:23:31.567Z,59.72
2018-03-19T03:24:38.728Z,59.76
2018-03-19T03:25:45.903Z,59.78
2018-03-19T03:26:52.564Z,59.80
2018-03-19T03:27:59.246Z,59.81
2018-03-19T03:29:06.738Z,59.84
2018-03-19T03:30:13.526Z,59.84
2018-03-19T03:31:20.175Z,59.86
2018-03-19T03:32:27.327Z,59.88
2018-03-19T03:33:34.564Z,59.90
2018-03-19T03:34:41.229Z,59.93
2018-03-19T03:35:48.407Z,59.96
2018-03-19T03:36:55.091Z,59.94
2018-03-19T03:38:01.761Z,59.98
2018-03-19T03:39:08.467Z,59.98
2018-03-19T03:40:15.132Z,59.98
2018-03-19T03:41:21.823Z,60.04
2018-03-19T03:42:28.475Z,60.00
2018-03-19T03:43:35.148Z,60.02
2018-03-19T03:44:42.307Z,60.07
2018-03-19T03:45:49.006Z,60.10
2018-03-19T03:46:55.673Z,60.11
2018-03-19T03:48:02.332Z,60.13
2018-03-19T03:49:09.116Z,60.13
2018-03-19T03:50:16.276Z,60.17
2018-03-19T03:51:23.460Z,60.21
2018-03-19T03:52:30.121Z,60.24
2018-03-19T03:53:36.878Z,60.25
2018-03-19T03:54:43.556Z,60.30
2018-03-19T03:55:50.328Z,60.31
2018-03-19T03:56:57.048Z,60.36
2018-03-19T03:58:03.816Z,60.37
2018-03-19T03:59:10.653Z,60.39
2018-03-19T04:00:17.470Z,60.40
2018-03-19T04:01:24.635Z,60.47
2018-03-19T04:02:31.436Z,60.51
2018-03-19T04:03:38.601Z,60.50
2018-03-19T04:04:45.763Z,60.53
2018-03-19T04:05:52.939Z,60.54
2018-03-19T04:07:00.084Z,60.59
2018-03-19T04:08:07.244Z,60.61
2018-03-19T04:09:14.401Z,60.65
2018-03-19T04:10:21.572Z,60.69
2018-03-19T04:11:28.320Z,60.69
2018-03-19T04:12:35.002Z,60.73
2018-03-19T04:13:41.669Z,60.76
2018-03-19T04:14:48.364Z,60.79
2018-03-19T04:15:55.028Z,60.82
2018-03-19T04:17:01.814Z,60.86
2018-03-19T04:18:08.437Z,60.87
2018-03-19T04:19:15.586Z,60.93
2018-03-19T04:20:22.761Z,60.94
2018-03-19T04:21:29.442Z,60.95
2018-03-19T04:22:36.112Z,60.97
2018-03-19T04:23:42.887Z,61.01
2018-03-19T04:24:50.069Z,61.02
2018-03-19T04:25:56.740Z,61.04
2018-03-19T04:27:03.452Z,61.08
2018-03-19T04:28:10.157Z,61.10
2018-03-19T04:29:16.844Z,61.16
2018-03-19T04:30:23.579Z,61.16
2018-03-19T04:31:30.276Z,61.19
2018-03-19T04:32:36.959Z,61.23
2018-03-19T04:33:43.768Z,61.28
2018-03-19T04:34:50.574Z,61.29
2018-03-19T04:35:57.299Z,61.30
2018-03-19T04:37:03.984Z,61.35
2018-03-19T04:38:10.789Z,61.36
2018-03-19T04:39:17.569Z,61.42
2018-03-19T04:40:24.239Z,61.43
2018-03-19T04:41:31.453Z,61.52
2018-03-19T04:42:38.152Z,61.56
2018-03-19T04:43:44.829Z,61.54
2018-03-19T04:44:51.608Z,61.56
2018-03-19T04:45:58.280Z,61.58
2018-03-19T04:47:05.117Z,61.59
2018-03-19T04:48:11.779Z,61.63
2018-03-19T04:49:18.947Z,61.66
2018-03-19T04:50:25.640Z,61.70
2018-03-19T04:51:32.344Z,61.74
2018-03-19T04:52:39.032Z,61.76
2018-03-19T04:53:45.738Z,61.82
2018-03-19T04:54:52.425Z,61.83
2018-03-19T04:55:59.143Z,61.93
2018-03-19T04:57:05.858Z,61.97
2018-03-19T04:58:12.540Z,62.03
2018-03-19T04:59:19.195Z,62.05
2018-03-19T05:00:26.367Z,62.03
2018-03-19T05:01:33.161Z,62.04
2018-03-19T05:02:39.858Z,62.09
2018-03-19T05:03:46.532Z,62.14
2018-03-19T05:04:53.225Z,62.22
2018-03-19T05:05:59.904Z,62.28
2018-03-19T05:07:06.703Z,62.27
2018-03-19T05:08:13.384Z,62.30
2018-03-19T05:09:20.132Z,62.33
2018-03-19T05:10:26.927Z,62.34
2018-03-19T05:11:33.616Z,62.34
2018-03-19T05:12:40.312Z,62.40
2018-03-19T05:13:47.003Z,62.45
2018-03-19T05:14:53.716Z,62.47
2018-03-19T05:16:00.403Z,62.47
2018-03-19T05:17:07.147Z,62.52
2018-03-19T05:18:13.840Z,62.57
2018-03-19T05:19:20.525Z,62.65
2018-03-19T05:20:27.329Z,62.66
2018-03-19T05:21:33.994Z,62.68
2018-03-19T05:22:40.714Z,62.67
2018-03-19T05:23:47.412Z,62.68
2018-03-19T05:24:54.102Z,62.73
2018-03-19T05:26:00.756Z,62.74
2018-03-19T05:27:07.455Z,62.76
2018-03-19T05:28:14.148Z,62.80
2018-03-19T05:29:20.827Z,62.80
2018-03-19T05:30:27.488Z,62.82
2018-03-19T05:31:34.651Z,62.80
2018-03-19T05:32:41.823Z,62.85
2018-03-19T05:33:48.996Z,62.89
2018-03-19T05:34:55.671Z,62.91
2018-03-19T05:36:02.335Z,62.91
2018-03-19T05:37:09.504Z,62.92
2018-03-19T05:38:16.177Z,62.94
2018-03-19T05:39:22.974Z,62.98
2018-03-19T05:40:30.134Z,63.00
2018-03-19T05:41:37.401Z,63.06
2018-03-19T05:42:44.079Z,63.05
2018-03-19T05:43:50.784Z,63.03
2018-03-19T05:44:57.464Z,63.04
2018-03-19T05:46:04.163Z,63.09
2018-03-19T05:47:10.831Z,63.14
2018-03-19T05:48:17.552Z,63.15
2018-03-19T05:49:24.220Z,63.20
2018-03-19T05:50:31.370Z,63.23
2018-03-19T05:51:38.524Z,63.25
2018-03-19T05:52:45.201Z,63.23
2018-03-19T05:53:51.876Z,63.25
2018-03-19T05:54:58.520Z,63.29
2018-03-19T05:56:05.696Z,63.33
2018-03-19T05:57:12.355Z,63.37
2018-03-19T05:58:19.547Z,63.36
2018-03-19T05:59:26.356Z,63.34
2018-03-19T06:00:33.032Z,63.36
2018-03-19T06:01:39.736Z,63.32
2018-03-19T06:02:46.912Z,63.31
2018-03-19T06:03:53.720Z,63.35
2018-03-19T06:05:00.397Z,63.43
2018-03-19T06:06:07.330Z,63.46
2018-03-19T06:07:14.472Z,63.57
2018-03-19T06:08:21.634Z,63.60
2018-03-19T06:09:28.347Z,63.58
2018-03-19T06:10:35.010Z,63.57
2018-03-19T06:11:41.692Z,63.58
2018-03-19T06:12:48.381Z,63.60
2018-03-19T06:13:55.048Z,63.62
2018-03-19T06:15:02.236Z,63.58
2018-03-19T06:16:08.929Z,63.59
2018-03-19T06:17:15.640Z,63.62
2018-03-19T06:18:22.628Z,63.69
2018-03-19T06:19:29.300Z,63.66
2018-03-19T06:20:36.009Z,63.64
2018-03-19T06:21:42.678Z,63.71
2018-03-19T06:22:49.369Z,63.75
2018-03-19T06:23:56.088Z,63.73
2018-03-19T06:25:02.813Z,63.76
2018-03-19T06:26:09.568Z,63.79
2018-03-19T06:27:16.492Z,63.79
2018-03-19T06:28:23.372Z,63.83
2018-03-19T06:29:30.040Z,63.88
2018-03-19T06:30:37.231Z,63.90
2018-03-19T06:31:43.908Z,63.87
2018-03-19T06:32:50.605Z,63.85
2018-03-19T06:33:57.276Z,63.80
2018-03-19T06:35:03.977Z,63.81
2018-03-19T06:36:10.708Z,63.83
2018-03-19T06:37:17.405Z,63.86
2018-03-19T06:38:24.097Z,63.92
2018-03-19T06:39:30.905Z,63.82
2018-03-19T06:40:37.590Z,63.85
2018-03-19T06:41:44.296Z,63.87
2018-03-19T06:42:51.004Z,63.89
2018-03-19T06:43:57.713Z,63.92
2018-03-19T06:45:04.415Z,63.96
2018-03-19T06:46:11.100Z,63.94
2018-03-19T06:47:17.811Z,63.97
2018-03-19T06:48:24.479Z,63.90
2018-03-19T06:49:31.156Z,63.94
2018-03-19T06:50:37.949Z,63.94
2018-03-19T06:51:44.661Z,64.00
2018-03-19T06:52:51.362Z,63.98
2018-03-19T06:53:58.047Z,64.00
2018-03-19T06:55:04.769Z,63.91
2018-03-19T06:56:11.445Z,63.96
2018-03-19T06:57:18.189Z,63.93
2018-03-19T06:58:24.869Z,63.90
2018-03-19T06:59:31.537Z,63.97
2018-03-19T07:00:38.221Z,64.01
2018-03-19T07:01:44.900Z,64.04
2018-03-19T07:02:51.720Z,64.07
2018-03-19T07:03:58.403Z,64.00
2018-03-19T07:05:05.100Z,63.98
2018-03-19T07:06:11.789Z,64.00
2018-03-19T07:07:18.519Z,64.01
2018-03-19T07:08:25.193Z,64.07
2018-03-19T07:09:31.893Z,64.07
2018-03-19T07:10:38.580Z,64.07
2018-03-19T07:11:45.251Z,64.04
2018-03-19T07:12:51.975Z,64.05
2018-03-19T07:13:58.721Z,64.10
2018-03-19T07:15:05.407Z,64.15
2018-03-19T07:16:12.121Z,64.11
2018-03-19T07:17:18.847Z,64.14
2018-03-19T07:18:25.599Z,64.17
2018-03-19T07:19:32.315Z,64.20
2018-03-19T07:20:39.105Z,64.20
2018-03-19T07:21:45.849Z,64.19
2018-03-19T07:22:52.545Z,64.17
2018-03-19T07:23:59.272Z,64.16
2018-03-19T07:25:05.983Z,64.18
2018-03-19T07:26:12.680Z,64.22
2018-03-19T07:27:19.405Z,64.18
2018-03-19T07:28:26.104Z,64.22
2018-03-19T07:29:32.793Z,64.25
2018-03-19T07:30:39.552Z,64.21
2018-03-19T07:31:46.245Z,64.22
2018-03-19T07:32:52.952Z,64.21
2018-03-19T07:33:59.648Z,64.24
2018-03-19T07:35:06.343Z,64.21
2018-03-19T07:36:13.052Z,64.20
2018-03-19T07:37:19.756Z,64.27
2018-03-19T07:38:26.452Z,64.25
2018-03-19T07:39:33.343Z,64.24
2018-03-19T07:40:40.071Z,64.26
2018-03-19T07:41:46.773Z,64.26
2018-03-19T07:42:53.492Z,64.30
2018-03-19T07:44:00.243Z,64.28
2018-03-19T07:45:07.010Z,64.20
2018-03-19T07:46:13.716Z,64.20
2018-03-19T07:47:20.421Z,64.26
2018-03-19T07:48:27.168Z,64.23
2018-03-19T07:49:33.852Z,64.27
2018-03-19T07:50:40.617Z,64.33
2018-03-19T07:51:47.420Z,64.25
2018-03-19T07:52:54.181Z,64.18
2018-03-19T07:54:00.912Z,64.15
2018-03-19T07:55:07.611Z,64.16
2018-03-19T07:56:14.334Z,64.17
2018-03-19T07:57:21.015Z,64.11
2018-03-19T07:58:28.348Z,64.05
2018-03-19T07:59:34.539Z,64.06
2018-03-19T08:00:41.241Z,64.07
2018-03-19T08:01:47.964Z,64.15
2018-03-19T08:02:54.659Z,64.10
2018-03-19T08:04:01.473Z,64.09
2018-03-19T08:05:08.623Z,64.06
2018-03-19T08:06:15.435Z,64.09
2018-03-19T08:07:22.384Z,64.04
2018-03-19T08:08:29.091Z,64.14
2018-03-19T08:09:35.913Z,64.09
2018-03-19T08:10:42.604Z,64.04
2018-03-19T08:11:49.308Z,64.04
2018-03-19T08:12:55.996Z,63.89
2018-03-19T08:14:02.728Z,63.87
2018-03-19T08:15:09.432Z,63.91
2018-03-19T08:16:16.128Z,63.93
2018-03-19T08:17:22.816Z,63.92
2018-03-19T08:18:29.505Z,63.92
2018-03-19T08:19:36.317Z,63.94
2018-03-19T08:20:42.996Z,64.01
2018-03-19T08:21:49.700Z,63.88
2018-03-19T08:22:56.393Z,63.79
2018-03-19T08:24:03.121Z,63.80
2018-03-19T08:25:09.824Z,63.83
2018-03-19T08:26:16.508Z,63.76
2018-03-19T08:27:23.168Z,63.75
2018-03-19T08:28:30.345Z,63.68
2018-03-19T08:29:37.040Z,63.63
2018-03-19T08:30:43.704Z,63.69
2018-03-19T08:31:50.379Z,63.62
2018-03-19T08:32:57.548Z,63.63
2018-03-19T08:34:04.232Z,63.56
2018-03-19T08:35:11.019Z,63.55
2018-03-19T08:36:17.699Z,63.61
2018-03-19T08:37:24.392Z,63.58
2018-03-19T08:38:31.560Z,63.45
2018-03-19T08:39:38.276Z,63.43
2018-03-19T08:40:44.964Z,63.37
2018-03-19T08:41:51.663Z,63.38
2018-03-19T08:42:58.352Z,63.25
2018-03-19T08:44:05.028Z,63.29
2018-03-19T08:45:11.746Z,63.37
2018-03-19T08:46:18.544Z,63.44
2018-03-19T08:47:25.228Z,63.42
2018-03-19T08:48:31.917Z,63.39
2018-03-19T08:49:38.632Z,63.39
2018-03-19T08:50:45.335Z,63.31
2018-03-19T08:51:52.044Z,63.38
2018-03-19T08:52:58.725Z,63.36
2018-03-19T08:54:05.440Z,63.42
2018-03-19T08:55:12.160Z,63.38
2018-03-19T08:56:18.965Z,63.34
2018-03-19T08:57:25.664Z,63.27
2018-03-19T08:58:32.396Z,63.25
2018-03-19T08:59:39.083Z,63.25
2018-03-19T09:00:45.813Z,63.20
2018-03-19T09:01:52.522Z,63.18
2018-03-19T09:02:59.203Z,63.17
2018-03-19T09:04:06.044Z,63.19
2018-03-19T09:05:12.747Z,63.25
2018-03-19T09:06:19.444Z,63.02
2018-03-19T09:07:26.212Z,63.03
2018-03-19T09:08:32.900Z,63.08
2018-03-19T09:09:39.604Z,63.21
2018-03-19T09:10:46.319Z,63.23
2018-03-19T09:11:53.031Z,63.24
2018-03-19T09:12:59.784Z,63.23
2018-03-19T09:14:06.465Z,63.14
2018-03-19T09:15:13.140Z,63.09
2018-03-19T09:16:19.872Z,63.03
2018-03-19T09:17:26.844Z,63.06
2018-03-19T09:18:33.808Z,63.16
2018-03-19T09:19:40.717Z,63.02
2018-03-19T09:20:47.412Z,62.99
2018-03-19T09:21:54.168Z,63.10
2018-03-19T09:23:00.881Z,63.05
2018-03-19T09:24:07.609Z,63.06
2018-03-19T09:25:14.298Z,62.97
2018-03-19T09:26:21.008Z,62.92
2018-03-19T09:27:27.696Z,62.83
2018-03-19T09:28:34.500Z,62.87
2018-03-19T09:29:41.271Z,62.85
2018-03-19T09:30:48.010Z,62.82
2018-03-19T09:31:54.765Z,62.90
2018-03-19T09:33:01.613Z,62.90
2018-03-19T09:34:08.292Z,62.83
2018-03-19T09:35:15.018Z,62.81
2018-03-19T09:36:21.704Z,62.86
2018-03-19T09:37:28.440Z,62.85
2018-03-19T09:38:35.135Z,62.74
2018-03-19T09:39:41.846Z,62.66
2018-03-19T09:40:48.619Z,62.66
2018-03-19T09:41:55.355Z,62.68
2018-03-19T09:43:02.175Z,62.71
2018-03-19T09:44:08.902Z,62.64
2018-03-19T09:45:15.633Z,62.59
2018-03-19T09:46:22.428Z,62.63
2018-03-19T09:47:29.247Z,62.71
2018-03-19T09:48:35.964Z,62.65
2018-03-19T09:49:42.669Z,62.69
2018-03-19T09:50:49.361Z,62.58
2018-03-19T09:51:56.052Z,62.62
2018-03-19T09:53:02.848Z,62.58
2018-03-19T09:54:09.523Z,62.57
2018-03-19T09:55:16.221Z,62.69
2018-03-19T09:56:22.933Z,62.65
2018-03-19T09:57:29.648Z,62.60
2018-03-19T09:58:36.348Z,62.52
2018-03-19T09:59:43.031Z,62.54
2018-03-19T10:00:49.841Z,62.47
2018-03-19T10:01:56.577Z,62.56
2018-03-19T10:03:03.256Z,62.50
2018-03-19T10:04:09.962Z,62.40
2018-03-19T10:05:16.732Z,62.37
2018-03-19T10:06:23.461Z,62.28
2018-03-19T10:07:30.171Z,62.19
2018-03-19T10:08:37.021Z,62.10
2018-03-19T10:09:43.772Z,62.07
2018-03-19T10:10:50.519Z,62.18
2018-03-19T10:11:57.263Z,62.26
2018-03-19T10:13:03.992Z,62.43
2018-03-19T10:14:10.813Z,62.26
2018-03-19T10:15:17.621Z,62.26
2018-03-19T10:16:24.343Z,62.22
2018-03-19T10:17:31.091Z,62.38
2018-03-19T10:18:38.003Z,62.16
2018-03-19T10:19:44.787Z,62.19
2018-03-19T10:20:51.542Z,62.51
2018-03-19T10:21:58.370Z,62.72
2018-03-19T10:23:05.096Z,62.85
2018-03-19T10:24:11.876Z,62.75
2018-03-19T10:25:18.644Z,63.06
2018-03-19T10:26:25.311Z,63.04
2018-03-19T10:27:32.166Z,63.09
2018-03-19T10:28:39.069Z,63.09
2018-03-19T10:29:45.805Z,63.29
2018-03-19T10:30:52.608Z,63.09
2018-03-19T10:31:59.308Z,63.19
2018-03-19T10:33:06.147Z,63.02
2018-03-19T10:34:12.898Z,63.18
2018-03-19T10:35:19.543Z,63.00
2018-03-19T10:36:26.208Z,62.96
2018-03-19T10:37:32.907Z,63.01
2018-03-19T10:38:39.713Z,62.98
2018-03-19T10:39:46.430Z,62.90
2018-03-19T10:40:53.165Z,63.00
2018-03-19T10:41:59.864Z,62.86
2018-03-19T10:43:06.580Z,62.77
2018-03-19T10:44:13.320Z,62.88
2018-03-19T10:45:20.196Z,62.92
2018-03-19T10:46:26.996Z,62.90
2018-03-19T10:47:33.712Z,63.10
2018-03-19T10:48:40.440Z,62.97
2018-03-19T10:49:47.214Z,62.93
2018-03-19T10:50:53.880Z,62.83
2018-03-19T10:52:00.568Z,62.83
2018-03-19T10:53:07.261Z,62.90
2018-03-19T10:54:14.040Z,62.75
2018-03-19T10:55:20.855Z,62.83
2018-03-19T10:56:27.633Z,62.80
2018-03-19T10:57:34.342Z,62.76
2018-03-19T10:58:41.113Z,62.85
2018-03-19T10:59:48.040Z,62.65
2018-03-19T11:00:55.008Z,62.37
2018-03-19T11:02:01.604Z,62.28
2018-03-19T11:03:08.464Z,62.40
2018-03-19T11:04:15.293Z,62.44
2018-03-19T11:05:22.070Z,62.50
2018-03-19T11:06:28.828Z,62.77
2018-03-19T11:07:35.724Z,62.60
2018-03-19T11:08:42.544Z,62.44
2018-03-19T11:09:49.588Z,62.22
2018-03-19T11:10:56.445Z,61.99
2018-03-19T11:12:03.377Z,61.96
2018-03-19T11:13:10.305Z,62.22
2018-03-19T11:14:17.240Z,62.00
2018-03-19T11:15:24.025Z,62.10
2018-03-19T11:16:30.894Z,62.07
2018-03-19T11:17:37.764Z,62.00
2018-03-19T11:18:44.549Z,61.86
2018-03-19T11:19:51.380Z,61.82
2018-03-19T11:20:58.174Z,61.76
2018-03-19T11:22:05.084Z,62.03
2018-03-19T11:23:12.101Z,61.67
2018-03-19T11:24:19.107Z,61.78
2018-03-19T11:25:25.914Z,61.69
2018-03-19T11:26:32.972Z,61.59
2018-03-19T11:27:39.688Z,61.57
2018-03-19T11:28:46.355Z,61.33
2018-03-19T11:29:53.116Z,61.37
2018-03-19T11:31:00.002Z,61.09
2018-03-19T11:32:07.294Z,61.07
2018-03-19T11:33:13.992Z,61.18
2018-03-19T11:34:20.762Z,61.10
2018-03-19T11:35:27.756Z,60.83
2018-03-19T11:36:34.472Z,60.89
2018-03-19T11:37:41.112Z,60.89
2018-03-19T11:38:47.809Z,60.63
2018-03-19T11:39:54.503Z,60.53
2018-03-19T11:41:01.436Z,60.38
2018-03-19T11:42:08.124Z,60.04
2018-03-19T11:43:14.837Z,60.02
2018-03-19T11:44:21.512Z,59.73
2018-03-19T11:45:28.243Z,59.41
2018-03-19T11:46:35.069Z,59.33
2018-03-19T11:47:42.004Z,59.09
2018-03-19T11:48:48.976Z,59.48
2018-03-19T11:49:56.125Z,59.45
2018-03-19T11:51:02.447Z,59.68
2018-03-19T11:52:09.128Z,59.75
2018-03-19T11:53:15.829Z,59.39
2018-03-19T11:54:22.532Z,59.25
2018-03-19T11:55:29.286Z,59.29
2018-03-19T11:56:36.096Z,59.36
2018-03-19T11:57:42.810Z,59.00
2018-03-19T11:58:49.535Z,58.69
2018-03-19T11:59:56.403Z,58.55
2018-03-19T12:01:03.220Z,58.42
2018-03-19T12:02:09.955Z,58.13
2018-03-19T12:03:16.678Z,58.10
2018-03-19T12:04:23.628Z,57.73
2018-03-19T12:05:30.390Z,57.83
2018-03-19T12:06:37.240Z,57.77
2018-03-19T12:07:43.939Z,58.02
2018-03-19T12:08:50.616Z,57.52
2018-03-19T12:09:57.304Z,57.54
2018-03-19T12:11:03.995Z,57.46
2018-03-19T12:12:11.130Z,57.38
2018-03-19T12:13:17.941Z,57.10
2018-03-19T12:14:25.196Z,56.93
2018-03-19T12:15:31.872Z,56.63
2018-03-19T12:16:38.696Z,56.56
2018-03-19T12:17:45.401Z,56.18
2018-03-19T12:18:52.208Z,56.12
2018-03-19T12:19:58.908Z,55.93
2018-03-19T12:21:05.676Z,55.91
2018-03-19T12:22:12.393Z,55.65
2018-03-19T12:23:19.080Z,55.62
2018-03-19T12:24:25.955Z,55.61
2018-03-19T12:25:32.631Z,55.32
2018-03-19T12:26:39.377Z,55.37
2018-03-19T12:27:46.105Z,55.23
2018-03-19T12:28:52.807Z,54.95
2018-03-19T12:29:59.513Z,54.90
2018-03-19T12:31:06.318Z,54.86
2018-03-19T12:32:13.098Z,54.54
2018-03-19T12:33:19.837Z,54.40
2018-03-19T12:34:26.564Z,54.53
2018-03-19T12:35:33.362Z,54.24
2018-03-19T12:36:40.093Z,54.22
2018-03-19T12:37:46.813Z,54.16
2018-03-19T12:38:53.614Z,54.13
2018-03-19T12:40:00.677Z,54.02
2018-03-19T12:41:07.740Z,53.81
2018-03-19T12:42:14.535Z,53.57
2018-03-19T12:43:21.234Z,53.46
2018-03-19T12:44:27.929Z,53.21
2018-03-19T12:45:34.723Z,53.16
2018-03-19T12:46:41.465Z,53.06
2018-03-19T12:47:48.197Z,52.97
2018-03-19T12:48:54.934Z,52.73
2018-03-19T12:50:01.661Z,52.68
2018-03-19T12:51:08.503Z,52.67
2018-03-19T12:52:15.236Z,52.38
2018-03-19T12:53:21.960Z,52.24
2018-03-19T12:54:28.723Z,51.97
2018-03-19T12:55:35.558Z,52.15
2018-03-19T12:56:42.271Z,52.14
2018-03-19T12:57:49.025Z,52.17
2018-03-19T12:58:55.740Z,51.89
2018-03-19T13:00:02.486Z,51.90
2018-03-19T13:01:09.299Z,51.67
2018-03-19T13:02:16.033Z,51.56
2018-03-19T13:03:22.806Z,51.34
2018-03-19T13:04:29.524Z,51.12
2018-03-19T13:05:36.393Z,50.96
2018-03-19T13:06:43.090Z,50.94
2018-03-19T13:07:49.875Z,50.84
2018-03-19T13:08:56.602Z,50.59
2018-03-19T13:10:03.306Z,50.40
2018-03-19T13:11:10.032Z,50.33
2018-03-19T13:12:16.819Z,50.13
2018-03-19T13:13:23.528Z,50.10
2018-03-19T13:14:30.271Z,49.99
2018-03-19T13:15:36.973Z,49.83
2018-03-19T13:16:43.724Z,49.59
2018-03-19T13:17:50.436Z,49.58
2018-03-19T13:18:57.200Z,49.34
2018-03-19T13:20:03.988Z,49.36
2018-03-19T13:21:10.771Z,49.29
2018-03-19T13:22:17.472Z,49.32
2018-03-19T13:23:24.396Z,49.12
2018-03-19T13:24:31.112Z,49.11
2018-03-19T13:25:37.865Z,48.95
2018-03-19T13:26:44.560Z,48.82
2018-03-19T13:27:51.371Z,48.72
2018-03-19T13:28:58.368Z,48.56
2018-03-19T13:30:05.135Z,48.65
2018-03-19T13:31:11.855Z,48.48
2018-03-19T13:32:18.559Z,48.36
2018-03-19T13:33:25.283Z,48.30
2018-03-19T13:34:32.029Z,48.16
2018-03-19T13:35:38.715Z,48.09
2018-03-19T13:36:45.519Z,48.10
2018-03-19T13:37:52.192Z,48.02
2018-03-19T13:38:58.924Z,47.98
2018-03-19T13:40:05.704Z,47.90
2018-03-19T13:41:12.397Z,47.75
2018-03-19T13:42:19.084Z,47.64
2018-03-19T13:43:25.809Z,47.51
2018-03-19T13:44:32.556Z,47.48
2018-03-19T13:45:39.241Z,47.52
2018-03-19T13:46:45.959Z,47.51
2018-03-19T13:47:52.688Z,47.36
2018-03-19T13:48:59.425Z,47.29
2018-03-19T13:50:06.119Z,47.27
2018-03-19T13:51:12.953Z,47.25
2018-03-19T13:52:19.717Z,47.17
2018-03-19T13:53:26.523Z,47.18
2018-03-19T13:54:33.268Z,47.21
2018-03-19T13:55:40.074Z,47.05
2018-03-19T13:56:46.820Z,47.11
2018-03-19T13:57:53.567Z,46.97
2018-03-19T13:59:00.535Z,46.99
2018-03-19T14:00:07.459Z,46.97
2018-03-19T14:01:14.427Z,46.91
2018-03-19T14:02:21.213Z,46.77
2018-03-19T14:03:28.062Z,46.75
2018-03-19T14:04:34.840Z,46.71
2018-03-19T14:05:41.689Z,46.65
2018-03-19T14:06:48.480Z,46.52
2018-03-19T14:07:55.247Z,46.47
2018-03-19T14:09:01.976Z,46.59
2018-03-19T14:10:09.020Z,46.41
2018-03-19T14:11:15.781Z,46.24
2018-03-19T14:12:22.476Z,46.22
2018-03-19T14:13:29.211Z,46.33
2018-03-19T14:14:36.000Z,46.28
2018-03-19T14:15:42.700Z,46.18
2018-03-19T14:16:49.513Z,46.13
2018-03-19T14:17:56.224Z,46.10
2018-03-19T14:19:02.932Z,46.12
2018-03-19T14:20:09.726Z,46.15